Time;durP1;ratioP1;P1;durP2;ratioP2;P2;SDS_P1;SDS_P2;PMS_P1;PMS_P2;Temp;Humidity;BMP_temperature;BMP_pressure;BME280_temperature;BME280_humidity;BME280_pressure;Samples;Min_cycle;Max_cycle;Signal;HPM_P1;HPM_P2
2022/03/03 00:01:26;;;;;;;112.60;49.60;;;;;;;;;;4943533;28;20092;-69
2022/03/03 00:06:30;;;;;;;97.93;48.38;;;;;;;;;;5339482;23;20405;-69
2022/03/03 00:08:58;;;;;;;98.25;46.55;;;;;;;;;;4945286;28;20058;-69
2022/03/03 00:11:25;;;;;;;104.72;48.38;;;;;;;;;;4948405;28;20059;-69
2022/03/03 00:13:52;;;;;;;97.25;48.13;;;;;;;;;;4945483;28;20050;-69
2022/03/03 00:16:19;;;;;;;91.35;45.78;;;;;;;;;;4941507;28;20043;-69
2022/03/03 00:18:47;;;;;;;85.60;44.67;;;;;;;;;;4950234;28;20105;-69
2022/03/03 00:21:14;;;;;;;80.93;43.58;;;;;;;;;;4943509;28;20622;-69
2022/03/03 00:23:42;;;;;;;83.03;44.40;;;;;;;;;;4939847;28;20047;-69
2022/03/03 00:26:10;;;;;;;102.38;47.55;;;;;;;;;;4948252;28;20449;-69
2022/03/03 00:28:37;;;;;;;105.82;48.90;;;;;;;;;;4943626;28;20057;-69
2022/03/03 00:31:05;;;;;;;118.78;51.28;;;;;;;;;;4950925;28;20063;-69
2022/03/03 00:33:32;;;;;;;97.78;48.17;;;;;;;;;;4945374;28;20457;-69
2022/03/03 00:35:59;;;;;;;111.50;52.72;;;;;;;;;;4947296;28;20054;-69
2022/03/03 00:38:27;;;;;;;104.05;49.30;;;;;;;;;;4943530;28;20540;-69
2022/03/03 00:40:55;;;;;;;106.65;49.05;;;;;;;;;;4945118;28;20070;-69
2022/03/03 00:43:22;;;;;;;93.32;47.58;;;;;;;;;;4940253;28;20169;-69
2022/03/03 00:45:50;;;;;;;84.57;44.83;;;;;;;;;;4945318;28;20382;-69
2022/03/03 00:48:17;;;;;;;85.88;44.63;;;;;;;;;;4941025;28;20051;-69
2022/03/03 00:50:44;;;;;;;103.90;48.58;;;;;;;;;;4939963;28;20055;-69
2022/03/03 00:53:11;;;;;;;106.97;49.28;;;;;;;;;;4949531;28;20419;-69
2022/03/03 00:55:38;;;;;;;100.05;48.03;;;;;;;;;;4938339;28;20047;-69
2022/03/03 00:58:07;;;;;;;100.63;47.28;;;;;;;;;;4946396;28;20046;-69
2022/03/03 01:00:34;;;;;;;105.35;47.97;;;;;;;;;;4941589;28;20055;-69
2022/03/03 01:03:01;;;;;;;96.43;47.03;;;;;;;;;;4942910;28;20062;-69
2022/03/03 01:05:29;;;;;;;115.25;48.30;;;;;;;;;;4939700;28;20051;-69
2022/03/03 01:07:56;;;;;;;97.70;47.10;;;;;;;;;;4931863;28;20565;-69
2022/03/03 01:10:23;;;;;;;105.97;49.10;;;;;;;;;;4929887;28;20059;-69
2022/03/03 01:12:50;;;;;;;123.75;50.47;;;;;;;;;;4924780;28;20127;-69
2022/03/03 01:15:19;;;;;;;126.75;50.97;;;;;;;;;;4925268;28;20082;-69
2022/03/03 01:17:46;;;;;;;101.53;47.60;;;;;;;;;;4925848;28;20113;-69
2022/03/03 01:20:13;;;;;;;117.22;50.25;;;;;;;;;;4921948;28;20051;-69
2022/03/03 01:22:41;;;;;;;114.60;50.10;;;;;;;;;;4924782;28;20051;-69
2022/03/03 01:25:08;;;;;;;114.93;49.22;;;;;;;;;;4924769;28;20624;-69
2022/03/03 01:27:36;;;;;;;122.10;50.63;;;;;;;;;;4926287;28;20414;-69
2022/03/03 01:30:04;;;;;;;129.00;50.60;;;;;;;;;;4944936;28;20050;-69
2022/03/03 01:32:32;;;;;;;116.93;50.90;;;;;;;;;;4924357;28;20056;-69
2022/03/03 01:34:59;;;;;;;127.15;50.67;;;;;;;;;;4929821;28;20442;-69
2022/03/03 01:37:27;;;;;;;138.13;54.90;;;;;;;;;;4926112;28;20055;-69
2022/03/03 01:39:54;;;;;;;107.07;47.58;;;;;;;;;;4946841;28;20102;-69
2022/03/03 01:42:21;;;;;;;114.45;51.22;;;;;;;;;;4925450;28;20470;-69
2022/03/03 01:44:49;;;;;;;112.28;50.60;;;;;;;;;;4931188;28;20070;-69
2022/03/03 01:47:17;;;;;;;104.80;50.30;;;;;;;;;;4925406;28;20079;-69
2022/03/03 01:49:46;;;;;;;120.00;51.55;;;;;;;;;;4926478;29;20162;-69
2022/03/03 01:52:13;;;;;;;110.47;51.10;;;;;;;;;;4928123;28;20446;-69
2022/03/03 01:54:40;;;;;;;100.78;48.08;;;;;;;;;;4925037;28;20174;-69
2022/03/03 01:57:08;;;;;;;121.30;52.97;;;;;;;;;;4921059;28;20102;-69
2022/03/03 01:59:35;;;;;;;139.20;53.78;;;;;;;;;;4926581;28;20532;-69
2022/03/03 02:02:03;;;;;;;116.53;50.72;;;;;;;;;;4928206;28;20501;-69
2022/03/03 02:04:31;;;;;;;126.95;52.45;;;;;;;;;;4923177;28;20051;-68
2022/03/03 02:07:00;;;;;;;131.38;51.35;;;;;;;;;;4923566;28;20047;-68
2022/03/03 02:09:27;;;;;;;126.38;53.40;;;;;;;;;;4924405;29;20051;-68
2022/03/03 02:11:54;;;;;;;109.68;49.83;;;;;;;;;;4925543;28;20058;-68
2022/03/03 02:14:22;;;;;;;122.03;52.80;;;;;;;;;;4927536;28;20051;-68
2022/03/03 02:16:49;;;;;;;124.63;51.45;;;;;;;;;;4924040;28;20584;-68
2022/03/03 02:19:17;;;;;;;144.43;51.25;;;;;;;;;;4928746;28;20318;-68
2022/03/03 02:21:47;;;;;;;101.72;47.45;;;;;;;;;;4924686;28;20746;-68
2022/03/03 02:24:14;;;;;;;132.30;52.10;;;;;;;;;;4922575;28;20052;-69
2022/03/03 02:26:42;;;;;;;160.63;53.97;;;;;;;;;;4925018;28;20446;-68
2022/03/03 02:29:09;;;;;;;131.35;53.05;;;;;;;;;;4928689;28;20484;-68
2022/03/03 02:31:37;;;;;;;116.50;52.75;;;;;;;;;;4923301;28;20106;-68
2022/03/03 02:34:04;;;;;;;101.72;48.50;;;;;;;;;;4926168;28;20055;-68
2022/03/03 02:36:32;;;;;;;101.25;47.42;;;;;;;;;;4921652;28;20151;-68
2022/03/03 02:39:01;;;;;;;102.95;48.30;;;;;;;;;;4920708;28;20055;-68
2022/03/03 02:41:29;;;;;;;119.00;51.70;;;;;;;;;;4920916;28;20055;-68
2022/03/03 02:43:57;;;;;;;130.13;53.55;;;;;;;;;;4923866;28;20106;-68
2022/03/03 02:46:24;;;;;;;116.22;53.28;;;;;;;;;;4923321;28;20130;-68
2022/03/03 02:48:52;;;;;;;117.93;52.30;;;;;;;;;;4925087;28;20106;-68
2022/03/03 02:51:19;;;;;;;109.35;51.38;;;;;;;;;;4923725;29;20532;-68
2022/03/03 02:53:47;;;;;;;104.90;48.20;;;;;;;;;;4927419;28;20462;-69
2022/03/03 02:56:16;;;;;;;132.38;53.67;;;;;;;;;;4944451;28;20055;-68
2022/03/03 02:58:42;;;;;;;144.95;54.22;;;;;;;;;;4923749;28;20059;-68
2022/03/03 03:01:10;;;;;;;127.78;53.03;;;;;;;;;;4922899;28;20055;-68
2022/03/03 03:03:38;;;;;;;128.82;53.33;;;;;;;;;;4918989;28;20105;-68
2022/03/03 03:06:05;;;;;;;97.95;49.22;;;;;;;;;;4930548;28;20086;-68
2022/03/03 03:08:33;;;;;;;110.60;49.90;;;;;;;;;;4921160;28;20058;-68
2022/03/03 03:11:00;;;;;;;123.72;52.03;;;;;;;;;;4924335;28;20062;-68
2022/03/03 03:13:28;;;;;;;104.13;47.63;;;;;;;;;;4919979;29;20055;-68
2022/03/03 03:15:56;;;;;;;121.70;53.72;;;;;;;;;;4926599;28;20055;-68
2022/03/03 03:18:23;;;;;;;111.07;50.63;;;;;;;;;;4919464;28;20043;-68
2022/03/03 03:20:51;;;;;;;98.97;45.17;;;;;;;;;;4922782;28;20068;-68
2022/03/03 03:23:22;;;;;;;134.50;51.03;;;;;;;;;;4921498;29;20054;-68
2022/03/03 03:25:49;;;;;;;103.07;49.08;;;;;;;;;;4923099;28;20055;-68
2022/03/03 03:28:18;;;;;;;108.97;50.15;;;;;;;;;;4925612;28;20094;-68
2022/03/03 03:30:46;;;;;;;118.97;52.83;;;;;;;;;;4919317;28;20086;-68
2022/03/03 03:33:13;;;;;;;111.43;49.40;;;;;;;;;;4926111;28;20051;-68
2022/03/03 03:35:41;;;;;;;112.53;50.63;;;;;;;;;;4923823;29;20391;-68
2022/03/03 03:38:08;;;;;;;119.90;51.70;;;;;;;;;;4922794;28;20525;-68
2022/03/03 03:40:35;;;;;;;119.28;52.38;;;;;;;;;;4919592;28;20060;-68
2022/03/03 03:43:03;;;;;;;148.48;54.05;;;;;;;;;;4919357;28;20044;-68
2022/03/03 03:45:31;;;;;;;140.10;53.03;;;;;;;;;;4923133;29;20537;-68
2022/03/03 03:48:00;;;;;;;137.13;53.15;;;;;;;;;;4924592;28;20051;-68
2022/03/03 03:50:28;;;;;;;148.77;52.30;;;;;;;;;;4925360;28;20139;-68
2022/03/03 03:52:56;;;;;;;120.38;52.42;;;;;;;;;;4923516;28;20474;-68
2022/03/03 03:55:23;;;;;;;110.18;50.90;;;;;;;;;;4921319;29;20043;-68
2022/03/03 03:57:50;;;;;;;128.27;50.95;;;;;;;;;;4922563;28;20058;-68
2022/03/03 04:00:17;;;;;;;136.10;54.47;;;;;;;;;;4920374;28;20517;-68
2022/03/03 04:02:45;;;;;;;135.65;52.78;;;;;;;;;;4924131;28;20055;-68
2022/03/03 04:05:14;;;;;;;107.47;49.70;;;;;;;;;;4921919;29;20051;-68
2022/03/03 04:07:42;;;;;;;114.38;50.35;;;;;;;;;;4924012;28;20505;-68
2022/03/03 04:10:10;;;;;;;101.70;48.33;;;;;;;;;;4930080;28;20066;-68
2022/03/03 04:12:37;;;;;;;94.10;47.60;;;;;;;;;;4926610;28;20055;-68
2022/03/03 04:15:04;;;;;;;106.00;49.05;;;;;;;;;;4929414;28;21408;-68
2022/03/03 04:17:32;;;;;;;109.47;48.55;;;;;;;;;;4924208;29;20058;-68
2022/03/03 04:19:59;;;;;;;101.70;49.88;;;;;;;;;;4924488;28;20186;-68
2022/03/03 04:22:28;;;;;;;101.40;47.90;;;;;;;;;;4925841;29;20387;-68
2022/03/03 04:24:55;;;;;;;100.85;50.47;;;;;;;;;;4932384;28;20073;-68
2022/03/03 04:27:22;;;;;;;100.43;46.35;;;;;;;;;;4946901;28;20054;-68
2022/03/03 04:29:49;;;;;;;101.95;48.90;;;;;;;;;;4930982;28;20105;-68
2022/03/03 04:32:17;;;;;;;105.95;49.47;;;;;;;;;;4928433;28;20127;-68
2022/03/03 04:34:44;;;;;;;115.88;51.13;;;;;;;;;;4933217;28;20392;-68
2022/03/03 04:37:11;;;;;;;98.20;47.30;;;;;;;;;;4933331;28;20059;-68
2022/03/03 04:39:40;;;;;;;108.28;48.53;;;;;;;;;;4928294;28;20137;-68
2022/03/03 04:42:07;;;;;;;91.15;45.88;;;;;;;;;;4926517;29;20540;-68
2022/03/03 04:44:34;;;;;;;94.28;46.38;;;;;;;;;;4930225;28;20051;-68
2022/03/03 04:47:01;;;;;;;90.78;44.03;;;;;;;;;;4925192;29;20428;-68
2022/03/03 04:49:29;;;;;;;93.57;45.90;;;;;;;;;;4930434;29;20135;-68
2022/03/03 04:51:56;;;;;;;98.07;45.05;;;;;;;;;;4930844;28;20414;-68
2022/03/03 04:54:23;;;;;;;80.53;42.63;;;;;;;;;;4930471;28;20118;-68
2022/03/03 04:56:54;;;;;;;88.05;43.63;;;;;;;;;;4928427;28;20059;-68
2022/03/03 04:59:23;;;;;;;92.15;44.90;;;;;;;;;;4929794;28;20057;-68
2022/03/03 05:01:50;;;;;;;85.07;42.15;;;;;;;;;;4927602;29;20047;-68
2022/03/03 05:04:18;;;;;;;80.82;41.95;;;;;;;;;;4931849;28;20055;-68
2022/03/03 05:06:45;;;;;;;87.40;42.67;;;;;;;;;;4933621;28;20568;-68
2022/03/03 05:09:12;;;;;;;89.10;45.13;;;;;;;;;;4930341;29;20047;-68
2022/03/03 05:11:40;;;;;;;81.95;41.53;;;;;;;;;;4929238;28;20055;-68
2022/03/03 05:14:08;;;;;;;83.63;42.03;;;;;;;;;;4926257;28;20058;-68
2022/03/03 05:16:36;;;;;;;77.75;40.47;;;;;;;;;;4933795;29;20047;-68
2022/03/03 05:19:03;;;;;;;79.22;41.38;;;;;;;;;;4926761;28;20561;-68
2022/03/03 05:21:31;;;;;;;79.75;41.47;;;;;;;;;;4929338;28;20055;-68
2022/03/03 05:23:59;;;;;;;91.88;44.35;;;;;;;;;;4927451;28;20134;-68
2022/03/03 05:26:26;;;;;;;69.45;37.78;;;;;;;;;;4928792;28;20047;-68
2022/03/03 05:29:02;;;;;;;79.93;40.22;;;;;;;;;;4928952;28;20087;-68
2022/03/03 05:31:38;;;;;;;78.10;40.30;;;;;;;;;;4926022;28;20429;-68
2022/03/03 05:34:34;;;;;;;75.65;40.05;;;;;;;;;;4912946;28;20083;-68
2022/03/03 05:37:32;;;;;;;73.75;40.00;;;;;;;;;;4920468;28;20055;-68
2022/03/03 05:48:56;;;;;;;72.95;39.20;;;;;;;;;;4915810;28;20062;-68
2022/03/03 05:51:24;;;;;;;84.03;42.78;;;;;;;;;;4924731;28;20438;-68
2022/03/03 05:53:51;;;;;;;80.47;41.72;;;;;;;;;;4928295;28;20125;-68
2022/03/03 05:56:20;;;;;;;67.63;37.08;;;;;;;;;;4925567;28;20065;-68
2022/03/03 05:58:48;;;;;;;68.47;37.78;;;;;;;;;;4926058;28;20047;-68
2022/03/03 06:01:16;;;;;;;72.38;38.20;;;;;;;;;;4928534;28;20062;-68
2022/03/03 06:03:44;;;;;;;68.68;36.92;;;;;;;;;;4928171;28;20050;-68
2022/03/03 06:06:16;;;;;;;65.60;35.85;;;;;;;;;;4927026;28;20528;-68
2022/03/03 06:08:50;;;;;;;65.38;35.20;;;;;;;;;;4929266;28;20470;-68
2022/03/03 06:11:19;;;;;;;69.18;37.67;;;;;;;;;;4943185;28;20052;-68
2022/03/03 06:13:47;;;;;;;65.18;34.50;;;;;;;;;;4926635;29;20047;-68
2022/03/03 06:16:18;;;;;;;68.35;36.72;;;;;;;;;;4926325;28;20063;-68
2022/03/03 06:18:46;;;;;;;66.43;36.72;;;;;;;;;;4920997;28;20055;-68
2022/03/03 06:21:15;;;;;;;64.10;35.45;;;;;;;;;;4925276;29;20058;-68
2022/03/03 06:23:43;;;;;;;69.70;36.30;;;;;;;;;;4928584;29;20118;-68
2022/03/03 06:26:12;;;;;;;72.53;38.38;;;;;;;;;;4926306;28;20095;-68
2022/03/03 06:28:39;;;;;;;66.68;35.90;;;;;;;;;;4923811;28;20059;-68
2022/03/03 06:31:07;;;;;;;66.55;35.08;;;;;;;;;;4923334;28;20059;-68
2022/03/03 06:33:34;;;;;;;64.43;35.28;;;;;;;;;;4922066;28;20083;-68
2022/03/03 06:36:01;;;;;;;61.58;35.00;;;;;;;;;;4924901;29;20418;-68
2022/03/03 06:38:30;;;;;;;71.95;37.90;;;;;;;;;;4925593;28;20143;-68
2022/03/03 06:40:58;;;;;;;69.25;37.65;;;;;;;;;;4924326;28;20059;-68
2022/03/03 06:43:29;;;;;;;63.47;35.10;;;;;;;;;;4922713;28;20098;-68
2022/03/03 06:45:57;;;;;;;77.63;40.15;;;;;;;;;;4925315;28;20122;-68
2022/03/03 06:48:24;;;;;;;64.53;35.80;;;;;;;;;;4922005;28;20047;-68
2022/03/03 06:50:54;;;;;;;70.85;37.85;;;;;;;;;;4925729;28;20675;-68
2022/03/03 06:53:26;;;;;;;70.45;37.35;;;;;;;;;;4925685;28;20410;-68
2022/03/03 06:55:56;;;;;;;65.28;36.63;;;;;;;;;;4923219;28;20470;-68
2022/03/03 06:58:26;;;;;;;73.50;37.78;;;;;;;;;;4922478;28;20040;-68
2022/03/03 07:00:54;;;;;;;68.20;39.17;;;;;;;;;;4924172;28;20655;-68
2022/03/03 07:03:22;;;;;;;78.35;42.70;;;;;;;;;;4918867;28;20051;-68
2022/03/03 07:05:51;;;;;;;73.00;39.03;;;;;;;;;;4922766;28;20055;-68
2022/03/03 07:08:19;;;;;;;74.30;39.13;;;;;;;;;;4938317;28;20055;-68
2022/03/03 07:10:48;;;;;;;75.05;38.63;;;;;;;;;;4921469;28;20053;-68
2022/03/03 07:13:18;;;;;;;73.65;39.38;;;;;;;;;;4923122;28;20107;-68
2022/03/03 07:15:49;;;;;;;70.57;38.83;;;;;;;;;;4923562;28;20066;-68
2022/03/03 07:18:18;;;;;;;73.97;39.50;;;;;;;;;;4926185;29;20497;-68
2022/03/03 07:20:49;;;;;;;75.40;38.55;;;;;;;;;;4925572;28;20063;-68
2022/03/03 07:23:19;;;;;;;69.93;38.95;;;;;;;;;;4926479;28;20110;-68
2022/03/03 07:25:49;;;;;;;67.88;37.67;;;;;;;;;;4920489;28;20121;-68
2022/03/03 07:28:20;;;;;;;67.38;36.30;;;;;;;;;;4921250;28;20130;-68
2022/03/03 07:30:50;;;;;;;68.95;38.22;;;;;;;;;;4916367;28;20060;-68
2022/03/03 07:33:20;;;;;;;66.03;37.78;;;;;;;;;;4920832;28;20059;-68
2022/03/03 07:35:50;;;;;;;66.70;36.55;;;;;;;;;;4922151;28;20051;-68
2022/03/03 07:38:19;;;;;;;68.22;36.75;;;;;;;;;;4921964;28;20047;-68
2022/03/03 07:40:48;;;;;;;64.90;35.85;;;;;;;;;;4923045;28;20567;-68
2022/03/03 07:43:16;;;;;;;61.60;34.05;;;;;;;;;;4924815;28;20059;-68
2022/03/03 07:45:45;;;;;;;62.95;35.72;;;;;;;;;;4923693;28;20087;-68
2022/03/03 07:48:13;;;;;;;63.35;35.15;;;;;;;;;;4940963;28;20059;-68
2022/03/03 07:50:41;;;;;;;64.18;35.50;;;;;;;;;;4925273;28;20054;-68
2022/03/03 07:53:10;;;;;;;60.03;35.83;;;;;;;;;;4925706;28;20043;-68
2022/03/03 07:55:40;;;;;;;57.85;33.33;;;;;;;;;;4920672;28;20153;-68
2022/03/03 07:58:10;;;;;;;63.30;35.17;;;;;;;;;;4925295;28;20054;-68
2022/03/03 08:00:40;;;;;;;58.08;32.97;;;;;;;;;;4921144;28;20502;-68
2022/03/03 08:03:09;;;;;;;53.90;31.65;;;;;;;;;;4945942;28;20489;-68
2022/03/03 08:05:37;;;;;;;52.55;31.27;;;;;;;;;;4923231;29;20482;-68
2022/03/03 08:08:04;;;;;;;52.47;30.75;;;;;;;;;;4922182;28;20548;-68
2022/03/03 08:10:34;;;;;;;54.63;31.83;;;;;;;;;;4925338;28;20470;-68
2022/03/03 08:13:01;;;;;;;53.80;30.25;;;;;;;;;;4924943;28;20054;-68
2022/03/03 08:15:29;;;;;;;50.97;30.50;;;;;;;;;;4927699;28;20059;-68
2022/03/03 08:17:56;;;;;;;50.30;30.63;;;;;;;;;;4930145;29;20067;-69
2022/03/03 08:20:25;;;;;;;48.25;29.98;;;;;;;;;;4932174;29;20050;-68
2022/03/03 08:22:52;;;;;;;49.65;30.65;;;;;;;;;;4929624;28;20067;-68
2022/03/03 08:25:19;;;;;;;52.20;31.65;;;;;;;;;;4926815;29;20063;-68
2022/03/03 08:27:47;;;;;;;48.47;28.92;;;;;;;;;;4927800;28;20074;-68
2022/03/03 08:30:14;;;;;;;50.20;30.63;;;;;;;;;;4925585;28;20071;-68
2022/03/03 08:32:43;;;;;;;50.15;30.23;;;;;;;;;;4932971;28;20055;-68
2022/03/03 08:35:13;;;;;;;53.05;31.30;;;;;;;;;;4929520;28;20497;-68
2022/03/03 08:37:43;;;;;;;48.30;29.45;;;;;;;;;;4925992;29;20073;-69
2022/03/03 08:40:12;;;;;;;50.88;28.52;;;;;;;;;;4929505;29;20513;-69
2022/03/03 08:42:40;;;;;;;48.45;29.75;;;;;;;;;;4931179;29;20063;-69
2022/03/03 08:45:10;;;;;;;51.75;29.88;;;;;;;;;;4927566;28;20597;-69
2022/03/03 08:47:37;;;;;;;47.97;29.55;;;;;;;;;;4948094;28;20059;-69
2022/03/03 08:50:08;;;;;;;46.53;27.60;;;;;;;;;;4942021;28;20051;-68
2022/03/03 08:52:36;;;;;;;47.78;29.13;;;;;;;;;;4927941;28;20154;-68
2022/03/03 08:55:04;;;;;;;49.05;28.77;;;;;;;;;;4923467;28;20161;-69
2022/03/03 08:57:32;;;;;;;41.80;26.77;;;;;;;;;;4925960;28;20074;-69
2022/03/03 08:59:59;;;;;;;44.00;27.73;;;;;;;;;;4927179;28;20911;-69
2022/03/03 09:02:26;;;;;;;43.55;27.48;;;;;;;;;;4927692;28;20059;-69
2022/03/03 09:04:53;;;;;;;42.78;26.83;;;;;;;;;;4926952;28;20055;-69
2022/03/03 09:07:20;;;;;;;46.70;28.35;;;;;;;;;;4920860;28;20063;-69
2022/03/03 09:09:48;;;;;;;43.70;26.27;;;;;;;;;;4925182;28;20051;-69
2022/03/03 09:12:16;;;;;;;39.72;26.33;;;;;;;;;;4927016;28;20073;-69
2022/03/03 09:14:44;;;;;;;38.20;24.50;;;;;;;;;;4924177;28;20106;-69
2022/03/03 09:17:11;;;;;;;43.08;26.67;;;;;;;;;;4925615;28;20058;-69
2022/03/03 09:19:38;;;;;;;40.28;25.17;;;;;;;;;;4918581;28;20058;-69
2022/03/03 09:22:05;;;;;;;40.78;25.08;;;;;;;;;;4923107;28;20055;-69
2022/03/03 09:24:33;;;;;;;40.53;24.48;;;;;;;;;;4919770;28;20628;-69
2022/03/03 09:27:00;;;;;;;36.75;24.98;;;;;;;;;;4919635;28;20055;-69
2022/03/03 09:29:28;;;;;;;41.75;24.85;;;;;;;;;;4926655;28;20147;-69
2022/03/03 09:31:56;;;;;;;39.75;23.23;;;;;;;;;;4924471;28;20423;-69
2022/03/03 09:34:23;;;;;;;38.45;24.52;;;;;;;;;;4922589;28;20062;-68
2022/03/03 09:36:51;;;;;;;43.55;24.23;;;;;;;;;;4943807;28;20055;-68
2022/03/03 09:39:18;;;;;;;36.35;22.85;;;;;;;;;;4924718;28;20051;-68
2022/03/03 09:41:45;;;;;;;35.13;22.13;;;;;;;;;;4926194;28;20663;-68
2022/03/03 09:44:14;;;;;;;35.97;22.02;;;;;;;;;;4943360;28;20047;-68
2022/03/03 09:46:42;;;;;;;31.10;21.13;;;;;;;;;;4922657;28;20059;-68
2022/03/03 09:49:10;;;;;;;32.70;21.13;;;;;;;;;;4922012;28;20447;-68
2022/03/03 09:51:37;;;;;;;37.28;20.17;;;;;;;;;;4925577;28;20059;-69
2022/03/03 09:54:06;;;;;;;37.17;20.20;;;;;;;;;;4922710;28;20826;-69
2022/03/03 09:56:34;;;;;;;32.35;20.58;;;;;;;;;;4926527;28;20059;-69
2022/03/03 09:59:01;;;;;;;27.98;19.55;;;;;;;;;;4940367;28;20776;-69
2022/03/03 10:01:28;;;;;;;31.55;20.42;;;;;;;;;;4923711;28;20526;-69
2022/03/03 10:03:59;;;;;;;30.27;19.50;;;;;;;;;;4945030;28;20066;-69
2022/03/03 10:06:26;;;;;;;30.00;18.60;;;;;;;;;;4923964;28;20143;-69
2022/03/03 10:08:53;;;;;;;29.42;18.25;;;;;;;;;;4924114;28;20060;-69
2022/03/03 10:11:20;;;;;;;27.60;18.38;;;;;;;;;;4916606;28;20494;-69
2022/03/03 10:13:49;;;;;;;29.50;18.73;;;;;;;;;;4924642;28;20085;-69
2022/03/03 10:16:23;;;;;;;24.25;16.17;;;;;;;;;;4924721;28;20055;-69
2022/03/03 10:19:01;;;;;;;27.33;16.65;;;;;;;;;;4923831;28;20137;-69
2022/03/03 10:21:30;;;;;;;25.63;16.45;;;;;;;;;;4923095;28;20067;-69
2022/03/03 10:23:58;;;;;;;26.05;17.52;;;;;;;;;;4922162;28;20061;-69
2022/03/03 10:26:35;;;;;;;25.55;16.95;;;;;;;;;;4929074;28;20081;-69
2022/03/03 10:29:02;;;;;;;25.77;15.68;;;;;;;;;;4922885;28;20057;-69
2022/03/03 10:31:29;;;;;;;26.45;15.80;;;;;;;;;;4925288;28;20054;-69
2022/03/03 10:33:56;;;;;;;160.43;69.65;;;;;;;;;;4924559;28;20055;-69
2022/03/03 10:36:26;;;;;;;51.08;28.13;;;;;;;;;;4921756;28;20055;-69
2022/03/03 10:38:56;;;;;;;40.45;22.63;;;;;;;;;;4921805;28;20077;-69
2022/03/03 10:41:34;;;;;;;39.95;20.98;;;;;;;;;;4934347;28;20565;-69
2022/03/03 10:44:02;;;;;;;24.50;16.50;;;;;;;;;;4919287;28;20201;-69
2022/03/03 10:46:30;;;;;;;22.00;14.95;;;;;;;;;;4922076;28;20402;-70
2022/03/03 10:48:57;;;;;;;27.00;15.90;;;;;;;;;;4923279;28;20098;-70
2022/03/03 10:51:25;;;;;;;22.42;16.50;;;;;;;;;;4922095;28;20463;-70
2022/03/03 10:53:58;;;;;;;23.10;16.23;;;;;;;;;;4922362;28;20128;-69
2022/03/03 10:56:25;;;;;;;22.75;15.38;;;;;;;;;;4925771;28;20549;-69
2022/03/03 10:58:54;;;;;;;21.52;15.15;;;;;;;;;;4923759;28;20094;-69
2022/03/03 11:01:23;;;;;;;23.10;15.40;;;;;;;;;;4920742;28;20065;-69
2022/03/03 11:03:50;;;;;;;22.65;15.20;;;;;;;;;;4944847;28;20063;-69
2022/03/03 11:06:22;;;;;;;25.27;16.13;;;;;;;;;;4923197;28;20094;-69
2022/03/03 11:08:50;;;;;;;23.73;15.75;;;;;;;;;;4924626;28;20055;-69
2022/03/03 11:11:19;;;;;;;23.27;15.85;;;;;;;;;;4927375;28;20051;-69
2022/03/03 11:13:49;;;;;;;23.55;15.15;;;;;;;;;;4921107;28;20059;-70
2022/03/03 11:16:16;;;;;;;23.67;14.20;;;;;;;;;;4923643;28;20061;-70
2022/03/03 11:18:44;;;;;;;24.45;13.27;;;;;;;;;;4925949;28;20059;-70
2022/03/03 11:21:12;;;;;;;22.98;14.85;;;;;;;;;;4931722;28;20067;-70
2022/03/03 11:23:44;;;;;;;20.67;15.10;;;;;;;;;;4929138;28;20058;-70
2022/03/03 11:26:20;;;;;;;20.25;13.95;;;;;;;;;;4929348;28;20461;-69
2022/03/03 11:28:58;;;;;;;21.55;13.18;;;;;;;;;;4929376;28;20228;-69
2022/03/03 11:31:30;;;;;;;17.02;12.52;;;;;;;;;;4923349;28;20087;-69
2022/03/03 11:34:16;;;;;;;20.25;12.38;;;;;;;;;;4928072;28;20047;-69
2022/03/03 11:36:46;;;;;;;18.00;12.70;;;;;;;;;;4926815;28;20550;-69
2022/03/03 11:39:36;;;;;;;18.98;12.68;;;;;;;;;;4925506;28;20059;-69
2022/03/03 11:42:17;;;;;;;20.15;12.55;;;;;;;;;;4926599;28;20063;-69
2022/03/03 11:44:46;;;;;;;17.45;12.35;;;;;;;;;;4925185;28;20055;-70
2022/03/03 11:47:25;;;;;;;18.90;11.02;;;;;;;;;;4920421;28;20518;-70
2022/03/03 11:50:13;;;;;;;18.15;13.25;;;;;;;;;;4926091;29;20051;-70
2022/03/03 11:52:42;;;;;;;18.85;12.55;;;;;;;;;;4937123;28;20447;-70
2022/03/03 11:55:39;;;;;;;15.48;11.20;;;;;;;;;;4927731;28;20521;-70
2022/03/03 11:58:07;;;;;;;16.35;10.20;;;;;;;;;;4845945;29;20060;-70
2022/03/03 12:00:37;;;;;;;14.60;9.63;;;;;;;;;;4910101;28;20173;-70
2022/03/03 12:03:05;;;;;;;12.50;9.40;;;;;;;;;;4924774;28;20059;-70
2022/03/03 12:05:34;;;;;;;15.40;9.95;;;;;;;;;;4923821;28;20083;-70
2022/03/03 12:08:03;;;;;;;17.80;12.25;;;;;;;;;;4927445;28;20387;-70
2022/03/03 12:10:30;;;;;;;17.35;11.38;;;;;;;;;;4925537;28;20138;-70
2022/03/03 12:13:12;;;;;;;15.75;11.80;;;;;;;;;;4923165;28;20058;-70
2022/03/03 12:15:41;;;;;;;15.57;11.30;;;;;;;;;;4913048;28;20150;-70
2022/03/03 12:18:09;;;;;;;13.80;9.98;;;;;;;;;;4926547;28;20106;-70
2022/03/03 12:20:38;;;;;;;12.15;9.23;;;;;;;;;;4920750;28;20043;-71
2022/03/03 12:23:07;;;;;;;14.80;10.25;;;;;;;;;;4924511;28;20055;-71
2022/03/03 12:25:54;;;;;;;14.60;10.85;;;;;;;;;;4921013;28;20058;-70
2022/03/03 12:28:23;;;;;;;14.45;9.80;;;;;;;;;;4923429;28;20065;-70
2022/03/03 12:30:52;;;;;;;13.18;9.70;;;;;;;;;;4921957;28;20134;-70
2022/03/03 12:33:23;;;;;;;12.90;9.02;;;;;;;;;;4921702;28;20059;-70
2022/03/03 12:35:50;;;;;;;13.18;9.00;;;;;;;;;;4924341;28;20606;-70
2022/03/03 12:38:18;;;;;;;12.18;9.68;;;;;;;;;;4925138;28;20569;-71
2022/03/03 12:40:45;;;;;;;16.08;10.93;;;;;;;;;;4926859;28;20055;-71
2022/03/03 12:43:13;;;;;;;15.55;11.35;;;;;;;;;;4921645;28;20074;-71
2022/03/03 12:45:40;;;;;;;14.32;11.27;;;;;;;;;;4923876;28;20055;-71
2022/03/03 12:48:09;;;;;;;16.27;11.32;;;;;;;;;;4926686;28;20051;-71
2022/03/03 12:50:36;;;;;;;16.83;11.52;;;;;;;;;;4926154;28;20066;-71
2022/03/03 12:53:05;;;;;;;15.23;11.93;;;;;;;;;;4925026;28;20079;-71
2022/03/03 12:55:33;;;;;;;15.77;12.45;;;;;;;;;;4928330;29;20051;-71
2022/03/03 12:58:03;;;;;;;15.00;12.05;;;;;;;;;;4924056;28;20056;-71
2022/03/03 13:00:32;;;;;;;16.88;12.48;;;;;;;;;;4942102;28;20491;-71
2022/03/03 13:03:02;;;;;;;15.88;12.10;;;;;;;;;;4926012;29;20507;-71
2022/03/03 13:05:47;;;;;;;14.13;11.85;;;;;;;;;;4921300;28;20625;-71
2022/03/03 13:08:24;;;;;;;15.43;11.68;;;;;;;;;;4905488;29;20048;-71
2022/03/03 13:10:51;;;;;;;13.90;11.23;;;;;;;;;;4910421;29;20052;-71
2022/03/03 13:13:19;;;;;;;16.48;12.00;;;;;;;;;;4908723;29;20048;-71
2022/03/03 13:15:48;;;;;;;13.57;11.02;;;;;;;;;;4915566;29;20051;-71
2022/03/03 13:18:16;;;;;;;13.35;10.40;;;;;;;;;;4905246;29;20427;-71
2022/03/03 13:20:45;;;;;;;16.33;10.80;;;;;;;;;;4908492;29;21080;-71
2022/03/03 13:23:13;;;;;;;14.02;11.25;;;;;;;;;;4910646;29;20063;-71
2022/03/03 13:25:42;;;;;;;12.43;10.13;;;;;;;;;;4907148;29;20128;-71
2022/03/03 13:28:10;;;;;;;13.70;9.88;;;;;;;;;;4908228;29;20055;-71
2022/03/03 13:30:38;;;;;;;13.13;10.10;;;;;;;;;;4914198;29;20669;-71
2022/03/03 13:33:05;;;;;;;12.02;10.18;;;;;;;;;;4909682;29;20083;-71
2022/03/03 13:35:40;;;;;;;15.48;12.55;;;;;;;;;;4907113;29;20047;-71
2022/03/03 13:38:08;;;;;;;15.52;12.65;;;;;;;;;;4910103;29;20051;-71
2022/03/03 13:40:36;;;;;;;14.05;11.50;;;;;;;;;;4908582;29;20197;-71
2022/03/03 13:43:04;;;;;;;14.13;10.98;;;;;;;;;;4905825;29;20043;-71
2022/03/03 13:45:33;;;;;;;10.52;9.07;;;;;;;;;;4909592;29;20055;-71
2022/03/03 13:48:04;;;;;;;14.18;9.32;;;;;;;;;;4907794;29;20063;-71
2022/03/03 13:50:31;;;;;;;12.10;9.25;;;;;;;;;;4910696;29;20051;-71
2022/03/03 13:53:15;;;;;;;10.93;8.93;;;;;;;;;;4904215;29;20052;-71
2022/03/03 13:55:43;;;;;;;11.13;9.10;;;;;;;;;;4905574;29;20055;-71
2022/03/03 13:58:22;;;;;;;11.00;9.32;;;;;;;;;;4906181;29;20056;-72
2022/03/03 14:00:49;;;;;;;11.73;10.07;;;;;;;;;;4910367;29;20047;-72
2022/03/03 14:03:17;;;;;;;13.27;10.40;;;;;;;;;;4910043;29;20118;-72
2022/03/03 14:05:45;;;;;;;13.60;11.30;;;;;;;;;;4908822;29;20506;-72
2022/03/03 14:08:21;;;;;;;13.18;10.70;;;;;;;;;;4942041;28;20561;-72
2022/03/03 14:10:50;;;;;;;13.07;10.90;;;;;;;;;;4937534;29;20131;-70
2022/03/03 14:13:18;;;;;;;13.38;11.57;;;;;;;;;;4927032;28;20058;-70
2022/03/03 14:15:47;;;;;;;13.65;11.05;;;;;;;;;;4924144;29;20079;-70
2022/03/03 14:18:16;;;;;;;12.80;9.95;;;;;;;;;;4931303;28;20065;-70
2022/03/03 14:20:43;;;;;;;13.57;10.60;;;;;;;;;;4926182;28;20063;-70
2022/03/03 14:23:10;;;;;;;13.10;10.23;;;;;;;;;;4927273;28;20053;-70
2022/03/03 14:25:37;;;;;;;12.52;10.15;;;;;;;;;;4930731;29;20055;-70
2022/03/03 14:28:05;;;;;;;12.75;10.52;;;;;;;;;;4925236;29;20055;-70
2022/03/03 14:30:33;;;;;;;12.38;10.75;;;;;;;;;;4925685;29;20047;-70
2022/03/03 14:33:01;;;;;;;17.98;11.55;;;;;;;;;;4925962;29;20518;-70
2022/03/03 14:35:28;;;;;;;15.00;12.00;;;;;;;;;;4924483;28;20142;-70